Jump to content


UNITED AIRLINES FLIGHT UA1525 FLOWN ON 01-10-2018 BY CAPTAIN JIM BOERMAN

Pilot StatsCaptain Jim Boerman (LDP136) • 4,997.7 total hours • 1,501 total flights [View Logbook]
FLIGHT DETAILS
StatusReceived and approved on 2018-01-10 at 11:01:32
Origin AirportChicago-OHare Intl (KORD) • Chicago, Illinois, United States (668 feet MSL)
Filed Flight PlanKORD JOT J96 NORIS J105 MAGOO J181 BAYLI J105 FUZ J21 ACT J25 CWK KAUS
Destination AirportAustin Bergstrom Intl (KAUS) • Austin, Texas, United States (542 feet MSL)
Alternate AirportSan Antonio Intl (KSAT) • San Antonio, Texas, United States (809 feet MSL)
AirlineUnited Airlines
AircraftBoeing 737-900 | Winglets (73X / B737-900)
FS Aircraft UsedBoeing 737-924 United Airlines (Merger) Winglets
Cruising AltitudeFL360
Distance Flown850 nautical miles
Passengers Onboard150 passengers (86.21% full)
DEPARTURE DETAILS
Time Out07:30:30
Taxi Data160,097 lbs total with 23,967 lbs of fuel onboard
Takeoff Data07:51:44 (21 minutes after leaving gate/ramp) • 159,155 lbs total • 8° pitch at 162 knots
Departure METARKORD 101151Z 17009KT 1 1/4SM -DZ BR OVC004 02/01 A2994 RMK AO2 DZB40FZDZE40 SLP146 P0001 60001 70001 I1000 I6000 T00220011 10022 21011 56022
ARRIVAL DETAILS
Landing Data10:07:18 • 144,544 lbs total • 5° pitch doing 125 knots at a rate of -203.00 feet/minute with 7,927 lbs of fuel onboard
Time In10:17:26 (10 minutes after landing)
Ramp Weight144,057 lbs total
Total Fuel Used16,040 lbs
Total Block Time02:46:53 (2.8 hours) while 31 minutes were spent on the ground
Arrival METARKAUS 101613Z 14006KT 1 1/4SM BR OVC005 12/12 A2998 RMK AO2 SFC VIS 3 T01170117 $
MISCELLANEOUS DETAILS
LiveDISPATCH Version4.8.3.1
FS Version
FSUIPC Version5.12
OS VersionWindows 7 32-bit
Screen Resolution1920 x 1080
Pilot's CommentsNo Comments Reported
FLIGHT MAP